sensor_id;sensor_type;location;lat;lon;timestamp;P1;durP1;ratioP1;P2;durP2;ratioP2
25569;SDS011;17955;45.542;9.238;2022-10-26T00:00:41;28.52;;;12.48;;
25569;SDS011;17955;45.542;9.238;2022-10-26T00:03:10;32.88;;;14.57;;
25569;SDS011;17955;45.542;9.238;2022-10-26T00:05:37;28.42;;;13.65;;
25569;SDS011;17955;45.542;9.238;2022-10-26T00:08:05;25.45;;;12.10;;
25569;SDS011;17955;45.542;9.238;2022-10-26T00:10:32;26.05;;;11.60;;
25569;SDS011;17955;45.542;9.238;2022-10-26T00:13:03;21.55;;;11.48;;
25569;SDS011;17955;45.542;9.238;2022-10-26T00:15:33;30.02;;;10.65;;
25569;SDS011;17955;45.542;9.238;2022-10-26T00:18:01;20.77;;;10.50;;
25569;SDS011;17955;45.542;9.238;2022-10-26T00:20:32;18.92;;;10.85;;
25569;SDS011;17955;45.542;9.238;2022-10-26T00:23:00;23.45;;;11.40;;
25569;SDS011;17955;45.542;9.238;2022-10-26T00:25:27;20.52;;;10.73;;
25569;SDS011;17955;45.542;9.238;2022-10-26T00:27:54;21.10;;;11.48;;
25569;SDS011;17955;45.542;9.238;2022-10-26T00:30:22;19.75;;;11.00;;
25569;SDS011;17955;45.542;9.238;2022-10-26T00:32:49;25.10;;;10.90;;
25569;SDS011;17955;45.542;9.238;2022-10-26T00:35:16;24.40;;;11.07;;
25569;SDS011;17955;45.542;9.238;2022-10-26T00:37:45;22.48;;;11.38;;
25569;SDS011;17955;45.542;9.238;2022-10-26T00:40:12;25.42;;;10.80;;
25569;SDS011;17955;45.542;9.238;2022-10-26T00:42:39;25.20;;;11.10;;
25569;SDS011;17955;45.542;9.238;2022-10-26T00:45:14;18.38;;;11.60;;
25569;SDS011;17955;45.542;9.238;2022-10-26T00:47:46;24.88;;;11.20;;
25569;SDS011;17955;45.542;9.238;2022-10-26T00:50:14;28.25;;;12.90;;
25569;SDS011;17955;45.542;9.238;2022-10-26T00:52:45;25.63;;;11.98;;
25569;SDS011;17955;45.542;9.238;2022-10-26T00:55:12;20.73;;;11.40;;
25569;SDS011;17955;45.542;9.238;2022-10-26T00:57:39;22.98;;;11.90;;
25569;SDS011;17955;45.542;9.238;2022-10-26T01:00:07;23.90;;;11.50;;
25569;SDS011;17955;45.542;9.238;2022-10-26T01:02:35;24.05;;;11.15;;
25569;SDS011;17955;45.542;9.238;2022-10-26T01:05:02;23.45;;;10.38;;
25569;SDS011;17955;45.542;9.238;2022-10-26T01:07:31;20.67;;;11.05;;
25569;SDS011;17955;45.542;9.238;2022-10-26T01:10:00;18.88;;;9.70;;
25569;SDS011;17955;45.542;9.238;2022-10-26T01:12:27;24.42;;;9.57;;
25569;SDS011;17955;45.542;9.238;2022-10-26T01:14:55;18.25;;;8.75;;
25569;SDS011;17955;45.542;9.238;2022-10-26T01:17:32;17.10;;;9.15;;
25569;SDS011;17955;45.542;9.238;2022-10-26T01:20:17;15.15;;;7.75;;
25569;SDS011;17955;45.542;9.238;2022-10-26T01:23:05;13.38;;;7.53;;
25569;SDS011;17955;45.542;9.238;2022-10-26T01:28:26;22.50;;;7.47;;
25569;SDS011;17955;45.542;9.238;2022-10-26T01:30:58;15.82;;;7.28;;
25569;SDS011;17955;45.542;9.238;2022-10-26T01:33:31;13.95;;;6.13;;
25569;SDS011;17955;45.542;9.238;2022-10-26T01:36:01;14.48;;;6.97;;
25569;SDS011;17955;45.542;9.238;2022-10-26T01:38:30;13.57;;;7.70;;
25569;SDS011;17955;45.542;9.238;2022-10-26T01:40:59;17.90;;;7.90;;
25569;SDS011;17955;45.542;9.238;2022-10-26T01:43:29;17.05;;;7.45;;
25569;SDS011;17955;45.542;9.238;2022-10-26T01:46:00;16.55;;;6.53;;
25569;SDS011;17955;45.542;9.238;2022-10-26T01:48:28;14.23;;;7.20;;
25569;SDS011;17955;45.542;9.238;2022-10-26T01:50:55;15.85;;;7.63;;
25569;SDS011;17955;45.542;9.238;2022-10-26T01:53:24;16.55;;;7.22;;
25569;SDS011;17955;45.542;9.238;2022-10-26T01:55:53;14.70;;;7.50;;
25569;SDS011;17955;45.542;9.238;2022-10-26T01:58:23;15.45;;;6.68;;
25569;SDS011;17955;45.542;9.238;2022-10-26T02:01:12;18.67;;;7.43;;
25569;SDS011;17955;45.542;9.238;2022-10-26T02:03:53;14.85;;;7.00;;
25569;SDS011;17955;45.542;9.238;2022-10-26T02:06:30;21.70;;;7.22;;
25569;SDS011;17955;45.542;9.238;2022-10-26T02:09:07;15.25;;;7.22;;
25569;SDS011;17955;45.542;9.238;2022-10-26T02:11:45;16.08;;;7.03;;
25569;SDS011;17955;45.542;9.238;2022-10-26T02:14:16;17.58;;;7.78;;
25569;SDS011;17955;45.542;9.238;2022-10-26T02:16:50;15.95;;;6.65;;
25569;SDS011;17955;45.542;9.238;2022-10-26T02:19:28;14.15;;;7.63;;
25569;SDS011;17955;45.542;9.238;2022-10-26T02:21:57;13.38;;;6.97;;
25569;SDS011;17955;45.542;9.238;2022-10-26T02:24:29;14.48;;;7.00;;
25569;SDS011;17955;45.542;9.238;2022-10-26T02:26:59;16.17;;;7.25;;
25569;SDS011;17955;45.542;9.238;2022-10-26T02:29:29;23.15;;;7.43;;
25569;SDS011;17955;45.542;9.238;2022-10-26T02:31:59;17.95;;;7.22;;
25569;SDS011;17955;45.542;9.238;2022-10-26T02:34:27;16.95;;;7.65;;
25569;SDS011;17955;45.542;9.238;2022-10-26T02:36:55;20.80;;;7.47;;
25569;SDS011;17955;45.542;9.238;2022-10-26T02:39:23;17.20;;;7.32;;
25569;SDS011;17955;45.542;9.238;2022-10-26T02:41:52;17.33;;;6.53;;
25569;SDS011;17955;45.542;9.238;2022-10-26T02:44:22;16.90;;;7.18;;
25569;SDS011;17955;45.542;9.238;2022-10-26T02:46:52;15.07;;;7.43;;
25569;SDS011;17955;45.542;9.238;2022-10-26T02:49:20;13.75;;;7.03;;
25569;SDS011;17955;45.542;9.238;2022-10-26T02:51:48;15.38;;;7.50;;
25569;SDS011;17955;45.542;9.238;2022-10-26T02:54:20;16.65;;;7.82;;
25569;SDS011;17955;45.542;9.238;2022-10-26T02:56:50;15.00;;;7.03;;
25569;SDS011;17955;45.542;9.238;2022-10-26T02:59:19;21.17;;;7.60;;
25569;SDS011;17955;45.542;9.238;2022-10-26T03:01:48;18.55;;;7.70;;
25569;SDS011;17955;45.542;9.238;2022-10-26T03:04:16;16.58;;;7.90;;
25569;SDS011;17955;45.542;9.238;2022-10-26T03:06:51;13.20;;;7.25;;
25569;SDS011;17955;45.542;9.238;2022-10-26T03:09:19;17.27;;;7.85;;
25569;SDS011;17955;45.542;9.238;2022-10-26T03:11:46;14.40;;;7.00;;
25569;SDS011;17955;45.542;9.238;2022-10-26T03:14:14;18.48;;;7.13;;
25569;SDS011;17955;45.542;9.238;2022-10-26T03:16:40;18.77;;;7.28;;
25569;SDS011;17955;45.542;9.238;2022-10-26T03:19:08;14.60;;;7.15;;
25569;SDS011;17955;45.542;9.238;2022-10-26T03:21:35;15.25;;;6.80;;
25569;SDS011;17955;45.542;9.238;2022-10-26T03:24:04;19.63;;;7.57;;
25569;SDS011;17955;45.542;9.238;2022-10-26T03:26:31;15.43;;;6.90;;
25569;SDS011;17955;45.542;9.238;2022-10-26T03:28:58;13.13;;;6.57;;
25569;SDS011;17955;45.542;9.238;2022-10-26T03:31:25;16.92;;;7.30;;
25569;SDS011;17955;45.542;9.238;2022-10-26T03:33:53;11.23;;;6.60;;
25569;SDS011;17955;45.542;9.238;2022-10-26T03:36:20;17.52;;;6.93;;
25569;SDS011;17955;45.542;9.238;2022-10-26T03:38:47;12.73;;;6.82;;
25569;SDS011;17955;45.542;9.238;2022-10-26T03:41:16;14.13;;;7.55;;
25569;SDS011;17955;45.542;9.238;2022-10-26T03:43:43;20.40;;;7.47;;
25569;SDS011;17955;45.542;9.238;2022-10-26T03:46:10;17.45;;;7.25;;
25569;SDS011;17955;45.542;9.238;2022-10-26T03:48:37;15.30;;;7.82;;
25569;SDS011;17955;45.542;9.238;2022-10-26T03:51:04;17.65;;;6.57;;
25569;SDS011;17955;45.542;9.238;2022-10-26T03:53:32;17.33;;;7.03;;
25569;SDS011;17955;45.542;9.238;2022-10-26T03:56:02;12.95;;;6.43;;
25569;SDS011;17955;45.542;9.238;2022-10-26T03:58:30;11.82;;;6.28;;
25569;SDS011;17955;45.542;9.238;2022-10-26T04:00:58;11.55;;;6.05;;
25569;SDS011;17955;45.542;9.238;2022-10-26T04:03:25;18.10;;;7.22;;
25569;SDS011;17955;45.542;9.238;2022-10-26T04:05:53;12.23;;;6.90;;
25569;SDS011;17955;45.542;9.238;2022-10-26T04:08:22;12.45;;;6.45;;
25569;SDS011;17955;45.542;9.238;2022-10-26T04:10:49;16.27;;;7.13;;
25569;SDS011;17955;45.542;9.238;2022-10-26T04:13:16;13.93;;;6.47;;
25569;SDS011;17955;45.542;9.238;2022-10-26T04:15:47;18.85;;;6.75;;
25569;SDS011;17955;45.542;9.238;2022-10-26T04:18:14;17.83;;;6.78;;
25569;SDS011;17955;45.542;9.238;2022-10-26T04:20:44;12.55;;;6.60;;
25569;SDS011;17955;45.542;9.238;2022-10-26T04:23:12;20.70;;;6.50;;
25569;SDS011;17955;45.542;9.238;2022-10-26T04:25:40;12.13;;;6.60;;
25569;SDS011;17955;45.542;9.238;2022-10-26T04:28:08;16.02;;;7.18;;
25569;SDS011;17955;45.542;9.238;2022-10-26T04:30:36;14.52;;;6.80;;
25569;SDS011;17955;45.542;9.238;2022-10-26T04:33:04;18.52;;;7.10;;
25569;SDS011;17955;45.542;9.238;2022-10-26T04:35:32;14.50;;;7.10;;
25569;SDS011;17955;45.542;9.238;2022-10-26T04:38:00;15.93;;;7.85;;
25569;SDS011;17955;45.542;9.238;2022-10-26T04:40:27;21.33;;;9.20;;
25569;SDS011;17955;45.542;9.238;2022-10-26T04:42:55;17.27;;;8.63;;
25569;SDS011;17955;45.542;9.238;2022-10-26T04:45:22;16.80;;;8.75;;
25569;SDS011;17955;45.542;9.238;2022-10-26T04:47:57;14.80;;;8.95;;
25569;SDS011;17955;45.542;9.238;2022-10-26T04:50:26;21.02;;;9.02;;
25569;SDS011;17955;45.542;9.238;2022-10-26T04:52:53;19.58;;;8.80;;
25569;SDS011;17955;45.542;9.238;2022-10-26T04:55:20;20.65;;;9.15;;
25569;SDS011;17955;45.542;9.238;2022-10-26T04:57:47;17.23;;;9.52;;
25569;SDS011;17955;45.542;9.238;2022-10-26T05:00:15;18.58;;;8.95;;
25569;SDS011;17955;45.542;9.238;2022-10-26T05:02:42;23.23;;;8.52;;
25569;SDS011;17955;45.542;9.238;2022-10-26T05:05:09;17.85;;;8.10;;
25569;SDS011;17955;45.542;9.238;2022-10-26T05:07:38;21.35;;;8.05;;
25569;SDS011;17955;45.542;9.238;2022-10-26T05:10:06;17.92;;;7.63;;
25569;SDS011;17955;45.542;9.238;2022-10-26T05:12:33;18.27;;;8.60;;
25569;SDS011;17955;45.542;9.238;2022-10-26T05:15:00;17.08;;;7.43;;
25569;SDS011;17955;45.542;9.238;2022-10-26T05:17:27;21.77;;;8.40;;
25569;SDS011;17955;45.542;9.238;2022-10-26T05:19:54;18.05;;;8.10;;
25569;SDS011;17955;45.542;9.238;2022-10-26T05:22:24;22.75;;;8.30;;
25569;SDS011;17955;45.542;9.238;2022-10-26T05:24:52;20.83;;;8.05;;
25569;SDS011;17955;45.542;9.238;2022-10-26T05:27:20;16.65;;;8.60;;
25569;SDS011;17955;45.542;9.238;2022-10-26T05:29:47;18.38;;;7.68;;
25569;SDS011;17955;45.542;9.238;2022-10-26T05:32:15;16.50;;;7.65;;
25569;SDS011;17955;45.542;9.238;2022-10-26T05:34:42;20.92;;;8.05;;
25569;SDS011;17955;45.542;9.238;2022-10-26T05:37:09;18.58;;;7.53;;
25569;SDS011;17955;45.542;9.238;2022-10-26T05:39:36;21.17;;;7.47;;
25569;SDS011;17955;45.542;9.238;2022-10-26T05:42:08;20.40;;;9.00;;
25569;SDS011;17955;45.542;9.238;2022-10-26T05:44:38;26.38;;;8.45;;
25569;SDS011;17955;45.542;9.238;2022-10-26T05:47:06;21.77;;;7.30;;
25569;SDS011;17955;45.542;9.238;2022-10-26T05:49:34;15.63;;;8.55;;
25569;SDS011;17955;45.542;9.238;2022-10-26T05:52:02;33.47;;;8.98;;
25569;SDS011;17955;45.542;9.238;2022-10-26T05:54:30;25.10;;;9.15;;
25569;SDS011;17955;45.542;9.238;2022-10-26T05:56:57;17.73;;;7.95;;
25569;SDS011;17955;45.542;9.238;2022-10-26T05:59:26;18.60;;;8.70;;
25569;SDS011;17955;45.542;9.238;2022-10-26T06:01:56;17.70;;;8.30;;
25569;SDS011;17955;45.542;9.238;2022-10-26T06:04:34;15.98;;;8.98;;
25569;SDS011;17955;45.542;9.238;2022-10-26T06:07:12;22.17;;;8.48;;
25569;SDS011;17955;45.542;9.238;2022-10-26T06:09:41;19.27;;;7.63;;
25569;SDS011;17955;45.542;9.238;2022-10-26T06:12:09;15.88;;;7.75;;
25569;SDS011;17955;45.542;9.238;2022-10-26T06:14:39;18.13;;;7.55;;
25569;SDS011;17955;45.542;9.238;2022-10-26T06:17:11;19.05;;;8.02;;
25569;SDS011;17955;45.542;9.238;2022-10-26T06:19:44;20.95;;;7.72;;
25569;SDS011;17955;45.542;9.238;2022-10-26T06:22:17;18.17;;;8.48;;
25569;SDS011;17955;45.542;9.238;2022-10-26T06:24:48;19.67;;;8.63;;
25569;SDS011;17955;45.542;9.238;2022-10-26T06:27:20;27.90;;;8.68;;
25569;SDS011;17955;45.542;9.238;2022-10-26T06:29:58;19.77;;;10.00;;
25569;SDS011;17955;45.542;9.238;2022-10-26T06:32:26;20.17;;;8.35;;
25569;SDS011;17955;45.542;9.238;2022-10-26T06:34:55;18.08;;;8.48;;
25569;SDS011;17955;45.542;9.238;2022-10-26T06:37:27;18.40;;;8.27;;
25569;SDS011;17955;45.542;9.238;2022-10-26T06:39:57;22.52;;;8.70;;
25569;SDS011;17955;45.542;9.238;2022-10-26T06:42:25;19.30;;;8.32;;
25569;SDS011;17955;45.542;9.238;2022-10-26T06:44:52;29.17;;;8.73;;
25569;SDS011;17955;45.542;9.238;2022-10-26T06:47:22;20.70;;;9.13;;
25569;SDS011;17955;45.542;9.238;2022-10-26T06:49:57;21.33;;;8.73;;
25569;SDS011;17955;45.542;9.238;2022-10-26T06:52:31;18.73;;;7.90;;
25569;SDS011;17955;45.542;9.238;2022-10-26T06:55:00;20.65;;;8.18;;
25569;SDS011;17955;45.542;9.238;2022-10-26T06:57:31;23.77;;;8.93;;
25569;SDS011;17955;45.542;9.238;2022-10-26T07:00:02;23.88;;;8.30;;
25569;SDS011;17955;45.542;9.238;2022-10-26T07:02:32;22.00;;;9.10;;
25569;SDS011;17955;45.542;9.238;2022-10-26T07:04:59;29.38;;;8.50;;
25569;SDS011;17955;45.542;9.238;2022-10-26T07:07:26;22.42;;;8.65;;
25569;SDS011;17955;45.542;9.238;2022-10-26T07:09:54;20.70;;;9.05;;
25569;SDS011;17955;45.542;9.238;2022-10-26T07:12:22;22.00;;;8.27;;
25569;SDS011;17955;45.542;9.238;2022-10-26T07:14:49;20.88;;;7.78;;
25569;SDS011;17955;45.542;9.238;2022-10-26T07:17:16;17.20;;;8.23;;
25569;SDS011;17955;45.542;9.238;2022-10-26T07:19:45;18.58;;;8.38;;
25569;SDS011;17955;45.542;9.238;2022-10-26T07:22:12;20.63;;;8.13;;
25569;SDS011;17955;45.542;9.238;2022-10-26T07:24:39;17.42;;;8.32;;
25569;SDS011;17955;45.542;9.238;2022-10-26T07:27:06;16.58;;;8.18;;
25569;SDS011;17955;45.542;9.238;2022-10-26T07:29:33;17.63;;;7.22;;
25569;SDS011;17955;45.542;9.238;2022-10-26T07:32:00;22.17;;;8.43;;
25569;SDS011;17955;45.542;9.238;2022-10-26T07:34:27;21.25;;;8.18;;
25569;SDS011;17955;45.542;9.238;2022-10-26T07:36:56;18.00;;;8.05;;
25569;SDS011;17955;45.542;9.238;2022-10-26T07:39:24;21.77;;;9.23;;
25569;SDS011;17955;45.542;9.238;2022-10-26T07:41:52;17.90;;;8.52;;
25569;SDS011;17955;45.542;9.238;2022-10-26T07:44:19;18.35;;;8.75;;
25569;SDS011;17955;45.542;9.238;2022-10-26T07:46:46;23.45;;;9.10;;
25569;SDS011;17955;45.542;9.238;2022-10-26T07:49:13;16.75;;;8.48;;
25569;SDS011;17955;45.542;9.238;2022-10-26T07:51:40;24.25;;;9.07;;
25569;SDS011;17955;45.542;9.238;2022-10-26T07:54:09;24.67;;;9.57;;
25569;SDS011;17955;45.542;9.238;2022-10-26T07:56:36;19.65;;;8.75;;
25569;SDS011;17955;45.542;9.238;2022-10-26T07:59:03;19.08;;;10.25;;
25569;SDS011;17955;45.542;9.238;2022-10-26T08:01:30;19.52;;;9.45;;
25569;SDS011;17955;45.542;9.238;2022-10-26T08:03:57;24.48;;;10.70;;
25569;SDS011;17955;45.542;9.238;2022-10-26T08:06:24;26.85;;;10.10;;
25569;SDS011;17955;45.542;9.238;2022-10-26T08:08:51;23.52;;;9.75;;
25569;SDS011;17955;45.542;9.238;2022-10-26T08:11:20;18.73;;;9.15;;
25569;SDS011;17955;45.542;9.238;2022-10-26T08:13:50;18.58;;;9.90;;
25569;SDS011;17955;45.542;9.238;2022-10-26T08:16:17;20.42;;;10.05;;
25569;SDS011;17955;45.542;9.238;2022-10-26T08:18:46;27.58;;;9.93;;
25569;SDS011;17955;45.542;9.238;2022-10-26T08:21:13;22.63;;;10.05;;
25569;SDS011;17955;45.542;9.238;2022-10-26T08:23:40;17.40;;;8.60;;
25569;SDS011;17955;45.542;9.238;2022-10-26T08:26:07;22.05;;;10.30;;
25569;SDS011;17955;45.542;9.238;2022-10-26T08:28:37;19.20;;;8.52;;
25569;SDS011;17955;45.542;9.238;2022-10-26T08:31:05;26.80;;;10.30;;
25569;SDS011;17955;45.542;9.238;2022-10-26T08:33:32;18.65;;;10.20;;
25569;SDS011;17955;45.542;9.238;2022-10-26T08:36:00;15.43;;;9.50;;
25569;SDS011;17955;45.542;9.238;2022-10-26T08:38:32;19.00;;;9.48;;
25569;SDS011;17955;45.542;9.238;2022-10-26T08:41:04;21.75;;;9.13;;
25569;SDS011;17955;45.542;9.238;2022-10-26T08:43:35;19.63;;;8.75;;
25569;SDS011;17955;45.542;9.238;2022-10-26T08:46:07;24.38;;;10.65;;
25569;SDS011;17955;45.542;9.238;2022-10-26T08:48:39;22.13;;;9.25;;
25569;SDS011;17955;45.542;9.238;2022-10-26T08:51:10;21.20;;;10.07;;
25569;SDS011;17955;45.542;9.238;2022-10-26T08:53:40;24.85;;;9.35;;
25569;SDS011;17955;45.542;9.238;2022-10-26T08:56:14;20.70;;;10.05;;
25569;SDS011;17955;45.542;9.238;2022-10-26T08:58:46;26.77;;;9.77;;
25569;SDS011;17955;45.542;9.238;2022-10-26T09:01:16;19.42;;;9.27;;
25569;SDS011;17955;45.542;9.238;2022-10-26T09:03:44;21.70;;;9.43;;
25569;SDS011;17955;45.542;9.238;2022-10-26T09:06:14;27.75;;;10.52;;
25569;SDS011;17955;45.542;9.238;2022-10-26T09:08:45;21.30;;;9.90;;
25569;SDS011;17955;45.542;9.238;2022-10-26T09:11:21;24.92;;;10.32;;
25569;SDS011;17955;45.542;9.238;2022-10-26T09:14:02;26.25;;;12.07;;
25569;SDS011;17955;45.542;9.238;2022-10-26T09:16:40;23.58;;;11.48;;
25569;SDS011;17955;45.542;9.238;2022-10-26T09:21:55;31.77;;;11.32;;
25569;SDS011;17955;45.542;9.238;2022-10-26T09:24:29;20.65;;;11.25;;
25569;SDS011;17955;45.542;9.238;2022-10-26T09:26:57;29.02;;;12.00;;
25569;SDS011;17955;45.542;9.238;2022-10-26T09:29:41;30.38;;;12.32;;
25569;SDS011;17955;45.542;9.238;2022-10-26T09:32:10;33.45;;;11.90;;
25569;SDS011;17955;45.542;9.238;2022-10-26T09:34:44;28.38;;;14.38;;
25569;SDS011;17955;45.542;9.238;2022-10-26T09:37:15;26.20;;;12.27;;
25569;SDS011;17955;45.542;9.238;2022-10-26T09:39:46;29.52;;;13.27;;
25569;SDS011;17955;45.542;9.238;2022-10-26T09:42:21;25.47;;;12.23;;
25569;SDS011;17955;45.542;9.238;2022-10-26T09:44:56;23.52;;;12.52;;
25569;SDS011;17955;45.542;9.238;2022-10-26T09:47:29;29.30;;;12.95;;
25569;SDS011;17955;45.542;9.238;2022-10-26T09:50:01;30.25;;;14.68;;
25569;SDS011;17955;45.542;9.238;2022-10-26T09:52:40;34.10;;;14.50;;
25569;SDS011;17955;45.542;9.238;2022-10-26T09:55:09;29.48;;;14.20;;
25569;SDS011;17955;45.542;9.238;2022-10-26T09:57:38;27.65;;;13.60;;
25569;SDS011;17955;45.542;9.238;2022-10-26T10:00:10;30.98;;;14.80;;
25569;SDS011;17955;45.542;9.238;2022-10-26T10:02:39;31.50;;;16.25;;
25569;SDS011;17955;45.542;9.238;2022-10-26T10:05:21;32.13;;;14.50;;
25569;SDS011;17955;45.542;9.238;2022-10-26T10:08:14;29.95;;;13.25;;
25569;SDS011;17955;45.542;9.238;2022-10-26T10:13:33;30.85;;;15.63;;
25569;SDS011;17955;45.542;9.238;2022-10-26T10:16:04;23.85;;;13.02;;
25569;SDS011;17955;45.542;9.238;2022-10-26T10:18:35;32.38;;;14.07;;
25569;SDS011;17955;45.542;9.238;2022-10-26T10:21:04;28.02;;;14.65;;
25569;SDS011;17955;45.542;9.238;2022-10-26T10:23:32;26.10;;;13.90;;
25569;SDS011;17955;45.542;9.238;2022-10-26T10:26:01;24.80;;;13.27;;
25569;SDS011;17955;45.542;9.238;2022-10-26T10:28:31;27.35;;;14.02;;
25569;SDS011;17955;45.542;9.238;2022-10-26T10:30:58;33.00;;;13.38;;
25569;SDS011;17955;45.542;9.238;2022-10-26T10:33:35;33.92;;;14.10;;
25569;SDS011;17955;45.542;9.238;2022-10-26T10:36:05;29.75;;;14.65;;
25569;SDS011;17955;45.542;9.238;2022-10-26T10:38:38;30.95;;;14.68;;
25569;SDS011;17955;45.542;9.238;2022-10-26T10:41:17;36.45;;;15.55;;
25569;SDS011;17955;45.542;9.238;2022-10-26T10:43:50;33.13;;;15.77;;
25569;SDS011;17955;45.542;9.238;2022-10-26T10:46:22;30.42;;;16.33;;
25569;SDS011;17955;45.542;9.238;2022-10-26T10:48:54;33.53;;;16.58;;
25569;SDS011;17955;45.542;9.238;2022-10-26T10:51:26;33.77;;;15.47;;
25569;SDS011;17955;45.542;9.238;2022-10-26T10:53:54;37.35;;;17.27;;
25569;SDS011;17955;45.542;9.238;2022-10-26T10:56:31;36.97;;;17.35;;
25569;SDS011;17955;45.542;9.238;2022-10-26T10:59:07;44.25;;;19.35;;
25569;SDS011;17955;45.542;9.238;2022-10-26T11:01:47;32.05;;;17.35;;
25569;SDS011;17955;45.542;9.238;2022-10-26T11:04:22;30.80;;;15.38;;
25569;SDS011;17955;45.542;9.238;2022-10-26T11:07:03;38.05;;;16.45;;
25569;SDS011;17955;45.542;9.238;2022-10-26T11:09:33;32.72;;;16.02;;
25569;SDS011;17955;45.542;9.238;2022-10-26T11:12:06;39.63;;;19.00;;
25569;SDS011;17955;45.542;9.238;2022-10-26T11:14:39;37.00;;;19.40;;
25569;SDS011;17955;45.542;9.238;2022-10-26T11:17:11;42.40;;;18.77;;
25569;SDS011;17955;45.542;9.238;2022-10-26T11:19:46;40.80;;;17.80;;
25569;SDS011;17955;45.542;9.238;2022-10-26T11:22:18;37.90;;;18.17;;
25569;SDS011;17955;45.542;9.238;2022-10-26T11:24:51;39.03;;;18.60;;
25569;SDS011;17955;45.542;9.238;2022-10-26T11:27:22;37.58;;;18.38;;
25569;SDS011;17955;45.542;9.238;2022-10-26T11:29:56;35.65;;;16.15;;
25569;SDS011;17955;45.542;9.238;2022-10-26T11:32:27;41.00;;;17.05;;
25569;SDS011;17955;45.542;9.238;2022-10-26T11:35:02;40.05;;;18.65;;
25569;SDS011;17955;45.542;9.238;2022-10-26T11:37:38;39.33;;;18.05;;
25569;SDS011;17955;45.542;9.238;2022-10-26T11:43:02;41.75;;;18.10;;
25569;SDS011;17955;45.542;9.238;2022-10-26T11:45:38;34.63;;;17.73;;
25569;SDS011;17955;45.542;9.238;2022-10-26T11:48:11;34.78;;;16.52;;
25569;SDS011;17955;45.542;9.238;2022-10-26T11:50:43;40.70;;;18.03;;
25569;SDS011;17955;45.542;9.238;2022-10-26T11:53:15;32.95;;;16.48;;
25569;SDS011;17955;45.542;9.238;2022-10-26T11:55:45;36.00;;;16.95;;
25569;SDS011;17955;45.542;9.238;2022-10-26T11:58:15;40.15;;;17.20;;
25569;SDS011;17955;45.542;9.238;2022-10-26T12:00:43;34.60;;;17.98;;
25569;SDS011;17955;45.542;9.238;2022-10-26T12:03:16;39.45;;;17.80;;
25569;SDS011;17955;45.542;9.238;2022-10-26T12:05:48;38.70;;;17.70;;
25569;SDS011;17955;45.542;9.238;2022-10-26T12:08:18;38.83;;;17.60;;
25569;SDS011;17955;45.542;9.238;2022-10-26T12:10:50;39.08;;;17.10;;
25569;SDS011;17955;45.542;9.238;2022-10-26T12:13:24;36.10;;;16.85;;
25569;SDS011;17955;45.542;9.238;2022-10-26T12:15:58;39.40;;;19.25;;
25569;SDS011;17955;45.542;9.238;2022-10-26T12:18:33;40.92;;;18.55;;
25569;SDS011;17955;45.542;9.238;2022-10-26T12:21:06;33.58;;;18.23;;
25569;SDS011;17955;45.542;9.238;2022-10-26T12:23:35;38.83;;;17.33;;
25569;SDS011;17955;45.542;9.238;2022-10-26T12:29:30;39.63;;;17.95;;
25569;SDS011;17955;45.542;9.238;2022-10-26T12:32:02;32.03;;;16.85;;
25569;SDS011;17955;45.542;9.238;2022-10-26T12:34:58;35.17;;;17.45;;
25569;SDS011;17955;45.542;9.238;2022-10-26T12:37:35;32.80;;;17.23;;
25569;SDS011;17955;45.542;9.238;2022-10-26T12:52:19;35.08;;;14.57;;
25569;SDS011;17955;45.542;9.238;2022-10-26T12:54:57;35.45;;;17.33;;
25569;SDS011;17955;45.542;9.238;2022-10-26T12:57:47;42.33;;;18.13;;
25569;SDS011;17955;45.542;9.238;2022-10-26T13:00:21;30.30;;;16.40;;
25569;SDS011;17955;45.542;9.238;2022-10-26T13:02:53;36.15;;;16.33;;
25569;SDS011;17955;45.542;9.238;2022-10-26T13:05:43;31.63;;;16.15;;
25569;SDS011;17955;45.542;9.238;2022-10-26T13:08:37;37.78;;;16.98;;
25569;SDS011;17955;45.542;9.238;2022-10-26T13:11:11;39.60;;;16.27;;
25569;SDS011;17955;45.542;9.238;2022-10-26T13:13:42;34.72;;;16.90;;
25569;SDS011;17955;45.542;9.238;2022-10-26T13:16:10;32.58;;;15.60;;
25569;SDS011;17955;45.542;9.238;2022-10-26T13:18:41;36.45;;;18.02;;
25569;SDS011;17955;45.542;9.238;2022-10-26T13:21:13;33.30;;;17.02;;
25569;SDS011;17955;45.542;9.238;2022-10-26T13:23:41;33.83;;;17.17;;
25569;SDS011;17955;45.542;9.238;2022-10-26T13:26:12;38.20;;;15.75;;
25569;SDS011;17955;45.542;9.238;2022-10-26T13:28:42;32.40;;;17.40;;
25569;SDS011;17955;45.542;9.238;2022-10-26T13:34:19;34.38;;;15.50;;
25569;SDS011;17955;45.542;9.238;2022-10-26T13:36:49;36.40;;;16.58;;
25569;SDS011;17955;45.542;9.238;2022-10-26T13:39:19;33.00;;;14.65;;
25569;SDS011;17955;45.542;9.238;2022-10-26T13:41:51;27.67;;;14.40;;
25569;SDS011;17955;45.542;9.238;2022-10-26T13:44:21;32.08;;;14.80;;
25569;SDS011;17955;45.542;9.238;2022-10-26T13:46:53;29.70;;;14.40;;
25569;SDS011;17955;45.542;9.238;2022-10-26T13:49:24;35.15;;;15.57;;
25569;SDS011;17955;45.542;9.238;2022-10-26T13:51:54;44.55;;;17.42;;
25569;SDS011;17955;45.542;9.238;2022-10-26T13:54:27;35.40;;;16.63;;
25569;SDS011;17955;45.542;9.238;2022-10-26T13:57:04;38.33;;;15.20;;
25569;SDS011;17955;45.542;9.238;2022-10-26T13:59:41;39.60;;;16.58;;
25569;SDS011;17955;45.542;9.238;2022-10-26T14:02:21;35.08;;;15.50;;
25569;SDS011;17955;45.542;9.238;2022-10-26T14:04:53;32.53;;;15.88;;
25569;SDS011;17955;45.542;9.238;2022-10-26T14:07:27;39.03;;;16.33;;
25569;SDS011;17955;45.542;9.238;2022-10-26T14:09:59;33.55;;;16.20;;
25569;SDS011;17955;45.542;9.238;2022-10-26T14:12:27;39.63;;;17.38;;
25569;SDS011;17955;45.542;9.238;2022-10-26T14:14:56;32.88;;;16.10;;
25569;SDS011;17955;45.542;9.238;2022-10-26T14:17:27;43.88;;;17.30;;
25569;SDS011;17955;45.542;9.238;2022-10-26T14:19:55;33.20;;;16.17;;
25569;SDS011;17955;45.542;9.238;2022-10-26T14:22:22;37.10;;;17.55;;
25569;SDS011;17955;45.542;9.238;2022-10-26T14:24:53;32.88;;;16.85;;
25569;SDS011;17955;45.542;9.238;2022-10-26T14:27:21;36.78;;;18.17;;
25569;SDS011;17955;45.542;9.238;2022-10-26T14:29:51;41.00;;;17.48;;
25569;SDS011;17955;45.542;9.238;2022-10-26T14:32:25;35.45;;;18.73;;
25569;SDS011;17955;45.542;9.238;2022-10-26T14:34:53;38.78;;;18.55;;
25569;SDS011;17955;45.542;9.238;2022-10-26T14:37:34;33.40;;;16.27;;
25569;SDS011;17955;45.542;9.238;2022-10-26T14:40:04;31.67;;;16.50;;
25569;SDS011;17955;45.542;9.238;2022-10-26T14:42:33;42.00;;;17.35;;
25569;SDS011;17955;45.542;9.238;2022-10-26T14:45:04;33.78;;;15.32;;
25569;SDS011;17955;45.542;9.238;2022-10-26T14:47:45;34.67;;;15.98;;
25569;SDS011;17955;45.542;9.238;2022-10-26T14:50:18;36.00;;;16.77;;
25569;SDS011;17955;45.542;9.238;2022-10-26T14:52:51;34.83;;;16.83;;
25569;SDS011;17955;45.542;9.238;2022-10-26T14:55:20;30.63;;;15.60;;
25569;SDS011;17955;45.542;9.238;2022-10-26T14:57:50;35.17;;;15.30;;
25569;SDS011;17955;45.542;9.238;2022-10-26T15:00:20;31.17;;;15.35;;
25569;SDS011;17955;45.542;9.238;2022-10-26T15:02:49;33.38;;;17.23;;
25569;SDS011;17955;45.542;9.238;2022-10-26T15:05:20;35.58;;;16.38;;
25569;SDS011;17955;45.542;9.238;2022-10-26T15:07:53;28.73;;;16.63;;
25569;SDS011;17955;45.542;9.238;2022-10-26T15:13:20;35.63;;;16.58;;
25569;SDS011;17955;45.542;9.238;2022-10-26T15:15:53;35.42;;;16.02;;
25569;SDS011;17955;45.542;9.238;2022-10-26T15:18:23;33.70;;;16.83;;
25569;SDS011;17955;45.542;9.238;2022-10-26T15:20:52;31.88;;;15.63;;